CheckWX is a tool to help pilots better visualize weather data.  It is not intended as a substitute for an official pre-flight weather briefing.

16:17:52 UTC

KBMG TAF
Monroe County Airport
Bloomington, Indiana, USA
KBMG 271733Z 2718/2818 15010KT P6SM VCSH SCT026 BKN060 FM272300 15007KT P6SM SCT040 BKN050 FM280900 VRB04KT P6SM VCSH BKN029 FM281200 VRB04KT P6SM BKN015 FM281500 18005KT 6SM -SHRA BKN029

May-27@
18:00 UTC

May-27 @ 18:00 UTC

May-27@
23:00 UTC

May-27 @ 23:00 UTC

TAF KBMG 271733Z 2718/2818 15010KT P6SM VCSH SCT026 BKN060

Expired

Wind
  • 150° at 10 KTS
Conditions
Area Showers
Cloud Levels
  • Scattered at 2,600' AGL
  • Broken at 6,000' AGL

May-27@
23:00 UTC

May-27 @ 23:00 UTC

May-28@
09:00 UTC

May-28 @ 09:00 UTC

FM272300 15007KT P6SM SCT040 BKN050

Expired

Wind
  • 150° at 7 KTS
Cloud Levels
  • Scattered at 4,000' AGL
  • Broken at 5,000' AGL

May-28@
09:00 UTC

May-28 @ 09:00 UTC

May-28@
12:00 UTC

May-28 @ 12:00 UTC

FM280900 VRB04KT P6SM VCSH BKN029

Expired

Wind
  • Variable at 4 KTS
Conditions
Area Showers
Cloud Levels
  • Broken at 2,900' AGL

May-28@
12:00 UTC

May-28 @ 12:00 UTC

May-28@
15:00 UTC

May-28 @ 15:00 UTC

FM281200 VRB04KT P6SM BKN015

Expired

Wind
  • Variable at 4 KTS
Cloud Levels
  • Broken at 1,500' AGL

May-28@
15:00 UTC

May-28 @ 15:00 UTC

May-28@
18:00 UTC

May-28 @ 18:00 UTC

FM281500 18005KT 6SM -SHRA BKN029

From

From Standard forecast or significant change

Wind
  • 180° at 5 KTS
Conditions
Light Showers, Rain
Cloud Levels
  • Broken at 2,900' AGL